
Distance (Route):
Temperature : -15.5°C
Humidity : 0%
Pressure : 0hPa| Receiver | Frames | First received | Last received |
|---|---|---|---|
| LZ4TU-5 | 128 | 2026-09-05 11:59:18 | 2026-09-05 13:02:23 |
| Receiver | Date | Latitude | Longitude | Direction | Speed | Altitude | Climb | Temperature | Humidity | Pressure | Voltage | Killtimer | Uptime | BKT | XDATA |
|---|---|---|---|---|---|---|---|---|---|---|---|---|---|---|---|
| LZ4TU-5 | 2026-09-05 13:02:23 | 42.92088 | 20.83991 | 117° | 31km/h | 6986m | -3.0m/s | -15.5°C | 0% | 0hPa | 0V | 00:00:00 | 00:00:00 | 00:00:00 | |
| LZ4TU-5 | 2026-09-05 13:02:18 | 42.92103 | 20.83954 | 122° | 31km/h | 6999m | -3.1m/s | -15.6°C | 0% | 0hPa | 0V | 00:00:00 | 00:00:00 | 00:00:00 | |
| LZ4TU-5 | 2026-09-05 13:02:14 | 42.92119 | 20.83916 | 118° | 31km/h | 7011m | -3.0m/s | -15.7°C | 0% | 0hPa | 0V | 00:00:00 | 00:00:00 | 00:00:00 | |
| LZ4TU-5 | 2026-09-05 13:02:09 | 42.92138 | 20.83867 | 118° | 33km/h | 7026m | -3.0m/s | -15.8°C | 0% | 0hPa | 0V | 00:00:00 | 00:00:00 | 00:00:00 | |
| LZ4TU-5 | 2026-09-05 13:02:05 | 42.92152 | 20.83827 | 117° | 33km/h | 7038m | -2.9m/s | -15.9°C | 0% | 0hPa | 0V | 00:00:00 | 00:00:00 | 00:00:00 | |
| LZ4TU-5 | 2026-09-05 13:02:01 | 42.92167 | 20.83786 | 118° | 35km/h | 7050m | -3.0m/s | -15.9°C | 0% | 0hPa | 0V | 00:00:00 | 00:00:00 | 00:00:00 | |
| LZ4TU-5 | 2026-09-05 12:58:55 | 42.92868 | 20.81544 | 112° | 40km/h | 7620m | -3.1m/s | -20.6°C | 0% | 0hPa | 0V | 00:00:00 | 00:00:00 | 00:00:00 | |
| LZ4TU-5 | 2026-09-05 12:58:51 | 42.92883 | 20.81492 | 112° | 40km/h | 7633m | -3.2m/s | -20.8°C | 0% | 0hPa | 0V | 00:00:00 | 00:00:00 | 00:00:00 | |
| LZ4TU-5 | 2026-09-05 12:58:47 | 42.92897 | 20.81440 | 111° | 42km/h | 7646m | -3.3m/s | -20.9°C | 0% | 0hPa | 0V | 00:00:00 | 00:00:00 | 00:00:00 | |
| LZ4TU-5 | 2026-09-05 12:58:34 | 42.92947 | 20.81268 | 113° | 42km/h | 7688m | -3.2m/s | -21.3°C | 0% | 0hPa | 0V | 00:00:00 | 00:00:00 | 00:00:00 | |
| LZ4TU-5 | 2026-09-05 12:58:30 | 42.92964 | 20.81215 | 114° | 42km/h | 7701m | -3.2m/s | -21.4°C | 0% | 0hPa | 0V | 00:00:00 | 00:00:00 | 00:00:00 | |
| LZ4TU-5 | 2026-09-05 12:58:26 | 42.92979 | 20.81162 | 112° | 42km/h | 7714m | -3.2m/s | -21.5°C | 0% | 0hPa | 0V | 00:00:00 | 00:00:00 | 00:00:00 | |
| LZ4TU-5 | 2026-09-05 12:58:10 | 42.93043 | 20.80949 | 115° | 42km/h | 7764m | -3.2m/s | -22.0°C | 0% | 0hPa | 0V | 00:00:00 | 00:00:00 | 00:00:00 | |
| LZ4TU-5 | 2026-09-05 12:58:06 | 42.93060 | 20.80897 | 113° | 42km/h | 7777m | -3.5m/s | -22.0°C | 0% | 0hPa | 0V | 00:00:00 | 00:00:00 | 00:00:00 | |
| LZ4TU-5 | 2026-09-05 12:57:57 | 42.93097 | 20.80776 | 114° | 42km/h | 7807m | -3.2m/s | -22.3°C | 0% | 0hPa | 0V | 00:00:00 | 00:00:00 | 00:00:00 | |
| LZ4TU-5 | 2026-09-05 12:55:24 | 42.93609 | 20.78692 | 109° | 42km/h | 8314m | -3.3m/s | -26.5°C | 0% | 0hPa | 0V | 00:00:00 | 00:00:00 | 00:00:00 | |
| LZ4TU-5 | 2026-09-05 12:55:20 | 42.93623 | 20.78636 | 110° | 44km/h | 8327m | -3.3m/s | -26.6°C | 0% | 0hPa | 0V | 00:00:00 | 00:00:00 | 00:00:00 | |
| LZ4TU-5 | 2026-09-05 12:55:16 | 42.93637 | 20.78581 | 110° | 42km/h | 8341m | -3.5m/s | -26.7°C | 0% | 0hPa | 0V | 00:00:00 | 00:00:00 | 00:00:00 | |
| LZ4TU-5 | 2026-09-05 12:55:12 | 42.93650 | 20.78526 | 108° | 42km/h | 8355m | -3.4m/s | -26.8°C | 0% | 0hPa | 0V | 00:00:00 | 00:00:00 | 00:00:00 | |
| LZ4TU-5 | 2026-09-05 12:55:03 | 42.93675 | 20.78404 | 104° | 40km/h | 8386m | -3.3m/s | -26.9°C | 0% | 0hPa | 0V | 00:00:00 | 00:00:00 | 00:00:00 | |
| LZ4TU-5 | 2026-09-05 12:54:59 | 42.93686 | 20.78350 | 106° | 40km/h | 8399m | -3.5m/s | -26.9°C | 0% | 0hPa | 0V | 00:00:00 | 00:00:00 | 00:00:00 | |
| LZ4TU-5 | 2026-09-05 12:54:55 | 42.93696 | 20.78295 | 106° | 42km/h | 8413m | -3.3m/s | -26.9°C | 0% | 0hPa | 0V | 00:00:00 | 00:00:00 | 00:00:00 | |
| LZ4TU-5 | 2026-09-05 12:54:51 | 42.93708 | 20.78241 | 108° | 42km/h | 8426m | -3.3m/s | -26.9°C | 0% | 0hPa | 0V | 00:00:00 | 00:00:00 | 00:00:00 | |
| LZ4TU-5 | 2026-09-05 12:54:39 | 42.93747 | 20.78075 | 110° | 42km/h | 8467m | -3.4m/s | -27.1°C | 0% | 0hPa | 0V | 00:00:00 | 00:00:00 | 00:00:00 | |
| LZ4TU-5 | 2026-09-05 12:54:35 | 42.93761 | 20.78020 | 110° | 42km/h | 8481m | -3.5m/s | -27.2°C | 0% | 0hPa | 0V | 00:00:00 | 00:00:00 | 00:00:00 | |
| LZ4TU-5 | 2026-09-05 12:54:30 | 42.93778 | 20.77950 | 109° | 42km/h | 8498m | -3.3m/s | -27.3°C | 0% | 0hPa | 0V | 00:00:00 | 00:00:00 | 00:00:00 | |
| LZ4TU-5 | 2026-09-05 12:54:26 | 42.93791 | 20.77894 | 109° | 42km/h | 8512m | -3.2m/s | -27.4°C | 0% | 0hPa | 0V | 00:00:00 | 00:00:00 | 00:00:00 | |
| LZ4TU-5 | 2026-09-05 12:54:22 | 42.93805 | 20.77839 | 110° | 44km/h | 8525m | -3.3m/s | -27.5°C | 0% | 0hPa | 0V | 00:00:00 | 00:00:00 | 00:00:00 | |
| LZ4TU-5 | 2026-09-05 12:51:53 | 42.94440 | 20.75756 | 117° | 47km/h | 9023m | -3.3m/s | -30.6°C | 0% | 0hPa | 0V | 00:00:00 | 00:00:00 | 00:00:00 | |
| LZ4TU-5 | 2026-09-05 12:51:49 | 42.94462 | 20.75696 | 117° | 49km/h | 9037m | -3.3m/s | -30.7°C | 0% | 0hPa | 0V | 00:00:00 | 00:00:00 | 00:00:00 | |
| LZ4TU-5 | 2026-09-05 12:49:16 | 42.95048 | 20.73433 | 109° | 44km/h | 9515m | -2.8m/s | -33.9°C | 0% | 0hPa | 0V | 00:00:00 | 00:00:00 | 00:00:00 | |
| LZ4TU-5 | 2026-09-05 12:49:11 | 42.95066 | 20.73360 | 108° | 46km/h | 9529m | -2.9m/s | -34.0°C | 0% | 0hPa | 0V | 00:00:00 | 00:00:00 | 00:00:00 | |
| LZ4TU-5 | 2026-09-05 12:49:07 | 42.95079 | 20.73302 | 108° | 44km/h | 9541m | -2.9m/s | -34.1°C | 0% | 0hPa | 0V | 00:00:00 | 00:00:00 | 00:00:00 | |
| LZ4TU-5 | 2026-09-05 12:46:23 | 42.95848 | 20.70792 | 114° | 49km/h | 10027m | -3.0m/s | -38.3°C | 0% | 0hPa | 0V | 00:00:00 | 00:00:00 | 00:00:00 | |
| LZ4TU-5 | 2026-09-05 12:46:19 | 42.95866 | 20.70729 | 113° | 47km/h | 10039m | -3.0m/s | -38.4°C | 0% | 0hPa | 0V | 00:00:00 | 00:00:00 | 00:00:00 | |
| LZ4TU-5 | 2026-09-05 12:46:15 | 42.95885 | 20.70667 | 114° | 47km/h | 10052m | -2.9m/s | -38.5°C | 0% | 0hPa | 0V | 00:00:00 | 00:00:00 | 00:00:00 | |
| LZ4TU-5 | 2026-09-05 12:45:58 | 42.95961 | 20.70403 | 111° | 47km/h | 10101m | -2.8m/s | -38.9°C | 0% | 0hPa | 0V | 00:00:00 | 00:00:00 | 00:00:00 | |
| LZ4TU-5 | 2026-09-05 12:45:54 | 42.95978 | 20.70341 | 112° | 49km/h | 10113m | -2.8m/s | -39.0°C | 0% | 0hPa | 0V | 00:00:00 | 00:00:00 | 00:00:00 | |
| LZ4TU-5 | 2026-09-05 12:45:50 | 42.95996 | 20.70279 | 112° | 49km/h | 10124m | -2.8m/s | -39.2°C | 0% | 0hPa | 0V | 00:00:00 | 00:00:00 | 00:00:00 | |
| LZ4TU-5 | 2026-09-05 12:45:46 | 42.96014 | 20.70216 | 112° | 49km/h | 10136m | -2.9m/s | -39.3°C | 0% | 0hPa | 0V | 00:00:00 | 00:00:00 | 00:00:00 | |
| LZ4TU-5 | 2026-09-05 12:42:01 | 42.96889 | 20.66696 | 101° | 49km/h | 10820m | -3.0m/s | -44.7°C | 0% | 0hPa | 0V | 00:00:00 | 00:00:00 | 00:00:00 | |
| LZ4TU-5 | 2026-09-05 12:41:57 | 42.96899 | 20.66630 | 102° | 47km/h | 10832m | -3.1m/s | -44.7°C | 0% | 0hPa | 0V | 00:00:00 | 00:00:00 | 00:00:00 | |
| LZ4TU-5 | 2026-09-05 12:41:53 | 42.96907 | 20.66565 | 101° | 47km/h | 10845m | -3.0m/s | -44.8°C | 0% | 0hPa | 0V | 00:00:00 | 00:00:00 | 00:00:00 | |
| LZ4TU-5 | 2026-09-05 12:41:49 | 42.96917 | 20.66500 | 101° | 49km/h | 10857m | -3.1m/s | -44.9°C | 0% | 0hPa | 0V | 00:00:00 | 00:00:00 | 00:00:00 | |
| LZ4TU-5 | 2026-09-05 12:39:24 | 42.97142 | 20.64067 | 95° | 51km/h | 11307m | -3.2m/s | -48.4°C | 0% | 0hPa | 0V | 00:00:00 | 00:00:00 | 00:00:00 | |
| LZ4TU-5 | 2026-09-05 12:39:20 | 42.97145 | 20.63997 | 94° | 51km/h | 11319m | -3.2m/s | -48.5°C | 0% | 0hPa | 0V | 00:00:00 | 00:00:00 | 00:00:00 | |
| LZ4TU-5 | 2026-09-05 12:39:16 | 42.97148 | 20.63929 | 96° | 49km/h | 11332m | -3.2m/s | -48.6°C | 0% | 0hPa | 0V | 00:00:00 | 00:00:00 | 00:00:00 | |
| LZ4TU-5 | 2026-09-05 12:39:12 | 42.97152 | 20.63860 | 95° | 51km/h | 11346m | -3.4m/s | -48.7°C | 0% | 0hPa | 0V | 00:00:00 | 00:00:00 | 00:00:00 | |
| LZ4TU-5 | 2026-09-05 12:36:46 | 42.97201 | 20.61404 | 92° | 47km/h | 11792m | -2.7m/s | -52.2°C | 0% | 0hPa | 0V | 00:00:00 | 00:00:00 | 00:00:00 | |
| LZ4TU-5 | 2026-09-05 12:36:42 | 42.97202 | 20.61338 | 92° | 47km/h | 11804m | -2.9m/s | -52.3°C | 0% | 0hPa | 0V | 00:00:00 | 00:00:00 | 00:00:00 | |
| LZ4TU-5 | 2026-09-05 12:36:38 | 42.97203 | 20.61272 | 91° | 47km/h | 11816m | -2.9m/s | -52.4°C | 0% | 0hPa | 0V | 00:00:00 | 00:00:00 | 00:00:00 | |
| LZ4TU-5 | 2026-09-05 12:36:34 | 42.97202 | 20.61206 | 90° | 49km/h | 11827m | -2.8m/s | -52.5°C | 0% | 0hPa | 0V | 00:00:00 | 00:00:00 | 00:00:00 | |
| LZ4TU-5 | 2026-09-05 12:34:24 | 42.97159 | 20.58862 | 85° | 53km/h | 12198m | -2.8m/s | -54.6°C | 0% | 0hPa | 0V | 00:00:00 | 00:00:00 | 00:00:00 | |
| LZ4TU-5 | 2026-09-05 12:34:20 | 42.97153 | 20.58791 | 83° | 53km/h | 12209m | -2.8m/s | -54.6°C | 0% | 0hPa | 0V | 00:00:00 | 00:00:00 | 00:00:00 | |
| LZ4TU-5 | 2026-09-05 12:34:16 | 42.97145 | 20.58718 | 83° | 55km/h | 12220m | -2.8m/s | -54.7°C | 0% | 0hPa | 0V | 00:00:00 | 00:00:00 | 00:00:00 | |
| LZ4TU-5 | 2026-09-05 12:34:11 | 42.97137 | 20.58627 | 84° | 53km/h | 12235m | -2.8m/s | -54.8°C | 0% | 0hPa | 0V | 00:00:00 | 00:00:00 | 00:00:00 | |
| LZ4TU-5 | 2026-09-05 12:32:06 | 42.96912 | 20.56672 | 83° | 42km/h | 12596m | -2.9m/s | -56.5°C | 0% | 0hPa | 0V | 00:00:00 | 00:00:00 | 00:00:00 | |
| LZ4TU-5 | 2026-09-05 12:32:02 | 42.96906 | 20.56616 | 84° | 40km/h | 12608m | -2.8m/s | -56.6°C | 0% | 0hPa | 0V | 00:00:00 | 00:00:00 | 00:00:00 | |
| LZ4TU-5 | 2026-09-05 12:31:58 | 42.96901 | 20.56559 | 83° | 42km/h | 12620m | -2.8m/s | -56.6°C | 0% | 0hPa | 0V | 00:00:00 | 00:00:00 | 00:00:00 | |
| LZ4TU-5 | 2026-09-05 12:31:54 | 42.96895 | 20.56501 | 84° | 42km/h | 12631m | -2.9m/s | -56.7°C | 0% | 0hPa | 0V | 00:00:00 | 00:00:00 | 00:00:00 | |
| LZ4TU-5 | 2026-09-05 12:31:41 | 42.96877 | 20.56314 | 84° | 44km/h | 12670m | -2.9m/s | -57.0°C | 0% | 0hPa | 0V | 00:00:00 | 00:00:00 | 00:00:00 | |
| LZ4TU-5 | 2026-09-05 12:31:37 | 42.96873 | 20.56254 | 86° | 42km/h | 12682m | -2.9m/s | -57.1°C | 0% | 0hPa | 0V | 00:00:00 | 00:00:00 | 00:00:00 | |
| LZ4TU-5 | 2026-09-05 12:31:33 | 42.96869 | 20.56196 | 86° | 44km/h | 12693m | -2.9m/s | -57.1°C | 0% | 0hPa | 0V | 00:00:00 | 00:00:00 | 00:00:00 | |
| LZ4TU-5 | 2026-09-05 12:31:17 | 42.96854 | 20.55959 | 86° | 44km/h | 12742m | -3.0m/s | -57.4°C | 0% | 0hPa | 0V | 00:00:00 | 00:00:00 | 00:00:00 | |
| LZ4TU-5 | 2026-09-05 12:31:13 | 42.96851 | 20.55901 | 87° | 42km/h | 12754m | -3.0m/s | -57.5°C | 0% | 0hPa | 0V | 00:00:00 | 00:00:00 | 00:00:00 | |
| LZ4TU-5 | 2026-09-05 12:31:08 | 42.96846 | 20.55828 | 86° | 42km/h | 12768m | -2.9m/s | -57.6°C | 0% | 0hPa | 0V | 00:00:00 | 00:00:00 | 00:00:00 | |
| LZ4TU-5 | 2026-09-05 12:31:04 | 42.96843 | 20.55770 | 86° | 42km/h | 12780m | -2.9m/s | -57.7°C | 0% | 0hPa | 0V | 00:00:00 | 00:00:00 | 00:00:00 | |
| LZ4TU-5 | 2026-09-05 12:28:53 | 42.96807 | 20.53884 | 93° | 44km/h | 13170m | -2.9m/s | -60.3°C | 0% | 0hPa | 0V | 00:00:00 | 00:00:00 | 00:00:00 | |
| LZ4TU-5 | 2026-09-05 12:28:49 | 42.96808 | 20.53823 | 92° | 44km/h | 13182m | -2.8m/s | -60.4°C | 0% | 0hPa | 0V | 00:00:00 | 00:00:00 | 00:00:00 | |
| LZ4TU-5 | 2026-09-05 12:28:45 | 42.96808 | 20.53763 | 91° | 44km/h | 13194m | -2.9m/s | -60.5°C | 0% | 0hPa | 0V | 00:00:00 | 00:00:00 | 00:00:00 | |
| LZ4TU-5 | 2026-09-05 12:28:41 | 42.96808 | 20.53703 | 91° | 44km/h | 13206m | -2.9m/s | -60.6°C | 0% | 0hPa | 0V | 00:00:00 | 00:00:00 | 00:00:00 | |
| LZ4TU-5 | 2026-09-05 12:26:30 | 42.96949 | 20.51360 | 99° | 51km/h | 13593m | -3.0m/s | -61.9°C | 0% | 0hPa | 0V | 00:00:00 | 00:00:00 | 00:00:00 | |
| LZ4TU-5 | 2026-09-05 12:26:22 | 42.96961 | 20.51216 | 98° | 51km/h | 13616m | -2.9m/s | -61.8°C | 0% | 0hPa | 0V | 00:00:00 | 00:00:00 | 00:00:00 | |
| LZ4TU-5 | 2026-09-05 12:26:17 | 42.96968 | 20.51130 | 97° | 51km/h | 13630m | -2.8m/s | -61.9°C | 0% | 0hPa | 0V | 00:00:00 | 00:00:00 | 00:00:00 | |
| LZ4TU-5 | 2026-09-05 12:24:32 | 42.97090 | 20.49228 | 99° | 58km/h | 13943m | -3.1m/s | -63.0°C | 0% | 0hPa | 0V | 00:00:00 | 00:00:00 | 00:00:00 | |
| LZ4TU-5 | 2026-09-05 12:24:28 | 42.97100 | 20.49147 | 102° | 60km/h | 13956m | -3.1m/s | -63.0°C | 0% | 0hPa | 0V | 00:00:00 | 00:00:00 | 00:00:00 | |
| LZ4TU-5 | 2026-09-05 12:22:33 | 42.97282 | 20.46783 | 114° | 68km/h | 14320m | -2.9m/s | -60.9°C | 0% | 0hPa | 0V | 00:00:00 | 00:00:00 | 00:00:00 | |
| LZ4TU-5 | 2026-09-05 12:22:29 | 42.97307 | 20.46694 | 112° | 71km/h | 14332m | -2.8m/s | -61.0°C | 0% | 0hPa | 0V | 00:00:00 | 00:00:00 | 00:00:00 | |
| LZ4TU-5 | 2026-09-05 12:22:25 | 42.97335 | 20.46607 | 116° | 69km/h | 14344m | -3.3m/s | -61.0°C | 0% | 0hPa | 0V | 00:00:00 | 00:00:00 | 00:00:00 | |
| LZ4TU-5 | 2026-09-05 12:22:21 | 42.97364 | 20.46519 | 114° | 69km/h | 14357m | -2.9m/s | -61.0°C | 0% | 0hPa | 0V | 00:00:00 | 00:00:00 | 00:00:00 | |
| LZ4TU-5 | 2026-09-05 12:20:18 | 42.98096 | 20.44126 | 100° | 58km/h | 14708m | -2.6m/s | -60.2°C | 0% | 0hPa | 0V | 00:00:00 | 00:00:00 | 00:00:00 | |
| LZ4TU-5 | 2026-09-05 12:20:14 | 42.98105 | 20.44049 | 98° | 57km/h | 14718m | -2.6m/s | -60.1°C | 0% | 0hPa | 0V | 00:00:00 | 00:00:00 | 00:00:00 | |
| LZ4TU-5 | 2026-09-05 12:20:09 | 42.98114 | 20.43952 | 102° | 57km/h | 14731m | -2.5m/s | -60.1°C | 0% | 0hPa | 0V | 00:00:00 | 00:00:00 | 00:00:00 | |
| LZ4TU-5 | 2026-09-05 12:20:05 | 42.98126 | 20.43876 | 103° | 57km/h | 14742m | -2.7m/s | -60.1°C | 0% | 0hPa | 0V | 00:00:00 | 00:00:00 | 00:00:00 | |
| LZ4TU-5 | 2026-09-05 12:18:02 | 42.98537 | 20.41717 | 112° | 47km/h | 14884m | 1.8m/s | -60.0°C | 0% | 0hPa | 0V | 00:00:00 | 00:00:00 | 00:00:00 | |
| LZ4TU-5 | 2026-09-05 12:17:58 | 42.98552 | 20.41647 | 101° | 60km/h | 14876m | 1.8m/s | -60.0°C | 0% | 0hPa | 0V | 00:00:00 | 00:00:00 | 00:00:00 | |
| LZ4TU-5 | 2026-09-05 12:17:53 | 42.98567 | 20.41560 | 111° | 47km/h | 14866m | 2.1m/s | -59.9°C | 0% | 0hPa | 0V | 00:00:00 | 00:00:00 | 00:00:00 | |
| LZ4TU-5 | 2026-09-05 12:17:49 | 42.98580 | 20.41487 | 101° | 58km/h | 14858m | 2.3m/s | -60.0°C | 0% | 0hPa | 0V | 00:00:00 | 00:00:00 | 00:00:00 | |
| LZ4TU-5 | 2026-09-05 12:15:49 | 42.99069 | 20.39228 | 112° | 64km/h | 14438m | 5.0m/s | -61.6°C | 0% | 0hPa | 0V | 00:00:00 | 00:00:00 | 00:00:00 | |
| LZ4TU-5 | 2026-09-05 12:15:44 | 42.99106 | 20.39129 | 120° | 75km/h | 14414m | 6.0m/s | -61.5°C | 0% | 0hPa | 0V | 00:00:00 | 00:00:00 | 00:00:00 | |
| LZ4TU-5 | 2026-09-05 12:15:41 | 42.99138 | 20.39034 | 109° | 64km/h | 14393m | 6.2m/s | -61.3°C | 0% | 0hPa | 0V | 00:00:00 | 00:00:00 | 00:00:00 | |
| LZ4TU-5 | 2026-09-05 12:13:14 | 42.99351 | 20.36244 | 97° | 55km/h | 13617m | 5.0m/s | -62.2°C | 0% | 0hPa | 0V | 00:00:00 | 00:00:00 | 00:00:00 | |
| LZ4TU-5 | 2026-09-05 12:13:10 | 42.99356 | 20.36171 | 95° | 53km/h | 13597m | 5.0m/s | -62.2°C | 0% | 0hPa | 0V | 00:00:00 | 00:00:00 | 00:00:00 | |
| LZ4TU-5 | 2026-09-05 12:13:06 | 42.99362 | 20.36097 | 99° | 58km/h | 13577m | 5.0m/s | -62.0°C | 0% | 0hPa | 0V | 00:00:00 | 00:00:00 | 00:00:00 | |
| LZ4TU-5 | 2026-09-05 12:13:02 | 42.99369 | 20.36021 | 93° | 51km/h | 13557m | 4.9m/s | -61.9°C | 0% | 0hPa | 0V | 00:00:00 | 00:00:00 | 00:00:00 | |
| LZ4TU-5 | 2026-09-05 12:12:50 | 42.99381 | 20.35794 | 97° | 53km/h | 13497m | 4.9m/s | -61.5°C | 0% | 0hPa | 0V | 00:00:00 | 00:00:00 | 00:00:00 | |
| LZ4TU-5 | 2026-09-05 12:12:46 | 42.99386 | 20.35720 | 98° | 58km/h | 13477m | 5.0m/s | -61.7°C | 0% | 0hPa | 0V | 00:00:00 | 00:00:00 | 00:00:00 | |
| LZ4TU-5 | 2026-09-05 12:12:41 | 42.99392 | 20.35620 | 95° | 47km/h | 13453m | 5.1m/s | -61.8°C | 0% | 0hPa | 0V | 00:00:00 | 00:00:00 | 00:00:00 | |
| LZ4TU-5 | 2026-09-05 12:12:37 | 42.99397 | 20.35551 | 100° | 58km/h | 13433m | 4.6m/s | -61.8°C | 0% | 0hPa | 0V | 00:00:00 | 00:00:00 | 00:00:00 | |
| LZ4TU-5 | 2026-09-05 12:12:33 | 42.99400 | 20.35474 | 91° | 46km/h | 13414m | 6.0m/s | -61.8°C | 0% | 0hPa | 0V | 00:00:00 | 00:00:00 | 00:00:00 | |
| LZ4TU-5 | 2026-09-05 12:10:36 | 42.99323 | 20.33805 | 83° | 38km/h | 12826m | 5.5m/s | -58.1°C | 0% | 0hPa | 0V | 00:00:00 | 00:00:00 | 00:00:00 | |
| LZ4TU-5 | 2026-09-05 12:10:32 | 42.99317 | 20.33756 | 81° | 37km/h | 12805m | 5.3m/s | -57.9°C | 0% | 0hPa | 0V | 00:00:00 | 00:00:00 | 00:00:00 | |
| LZ4TU-5 | 2026-09-05 12:10:28 | 42.99311 | 20.33705 | 85° | 37km/h | 12785m | 5.1m/s | -57.7°C | 0% | 0hPa | 0V | 00:00:00 | 00:00:00 | 00:00:00 | |
| LZ4TU-5 | 2026-09-05 12:08:43 | 42.99152 | 20.32264 | 87° | 53km/h | 12276m | 4.4m/s | -55.1°C | 0% | 0hPa | 0V | 00:00:00 | 00:00:00 | 00:00:00 | |
| LZ4TU-5 | 2026-09-05 12:08:39 | 42.99144 | 20.32199 | 80° | 49km/h | 12259m | 4.7m/s | -54.9°C | 0% | 0hPa | 0V | 00:00:00 | 00:00:00 | 00:00:00 | |
| LZ4TU-5 | 2026-09-05 12:08:34 | 42.99137 | 20.32120 | 83° | 46km/h | 12236m | 4.9m/s | -54.8°C | 0% | 0hPa | 0V | 00:00:00 | 00:00:00 | 00:00:00 | |
| LZ4TU-5 | 2026-09-05 12:08:29 | 42.99125 | 20.32035 | 83° | 53km/h | 12211m | 5.4m/s | -54.7°C | 0% | 0hPa | 0V | 00:00:00 | 00:00:00 | 00:00:00 | |
| LZ4TU-5 | 2026-09-05 12:08:16 | 42.99103 | 20.31815 | 83° | 53km/h | 12147m | 5.4m/s | -54.3°C | 0% | 0hPa | 0V | 00:00:00 | 00:00:00 | 00:00:00 | |
| LZ4TU-5 | 2026-09-05 12:08:12 | 42.99098 | 20.31747 | 87° | 49km/h | 12126m | 5.2m/s | -54.2°C | 0% | 0hPa | 0V | 00:00:00 | 00:00:00 | 00:00:00 | |
| LZ4TU-5 | 2026-09-05 12:08:08 | 42.99093 | 20.31677 | 88° | 51km/h | 12106m | 5.0m/s | -54.0°C | 0% | 0hPa | 0V | 00:00:00 | 00:00:00 | 00:00:00 | |
| LZ4TU-5 | 2026-09-05 12:06:21 | 42.99124 | 20.29931 | 96° | 47km/h | 11590m | 4.9m/s | -50.7°C | 0% | 0hPa | 0V | 00:00:00 | 00:00:00 | 00:00:00 | |
| LZ4TU-5 | 2026-09-05 12:06:17 | 42.99128 | 20.29864 | 97° | 51km/h | 11571m | 5.2m/s | -50.6°C | 0% | 0hPa | 0V | 00:00:00 | 00:00:00 | 00:00:00 | |
| LZ4TU-5 | 2026-09-05 12:06:13 | 42.99133 | 20.29798 | 94° | 46km/h | 11551m | 4.9m/s | -50.4°C | 0% | 0hPa | 0V | 00:00:00 | 00:00:00 | 00:00:00 | |
| LZ4TU-5 | 2026-09-05 12:05:57 | 42.99149 | 20.29532 | 96° | 51km/h | 11472m | 5.3m/s | -49.7°C | 0% | 0hPa | 0V | 00:00:00 | 00:00:00 | 00:00:00 | |
| LZ4TU-5 | 2026-09-05 12:05:53 | 42.99153 | 20.29463 | 98° | 51km/h | 11453m | 5.1m/s | -49.6°C | 0% | 0hPa | 0V | 00:00:00 | 00:00:00 | 00:00:00 | |
| LZ4TU-5 | 2026-09-05 12:05:49 | 42.99158 | 20.29398 | 97° | 46km/h | 11433m | 5.1m/s | -49.5°C | 0% | 0hPa | 0V | 00:00:00 | 00:00:00 | 00:00:00 | |
| LZ4TU-5 | 2026-09-05 12:05:46 | 42.99160 | 20.29335 | 96° | 47km/h | 11413m | 5.1m/s | -49.3°C | 0% | 0hPa | 0V | 00:00:00 | 00:00:00 | 00:00:00 | |
| LZ4TU-5 | 2026-09-05 12:04:02 | 42.99360 | 20.27689 | 103° | 46km/h | 10906m | 5.2m/s | -45.2°C | 0% | 0hPa | 0V | 00:00:00 | 00:00:00 | 00:00:00 | |
| LZ4TU-5 | 2026-09-05 12:03:58 | 42.99368 | 20.27627 | 101° | 47km/h | 10885m | 5.3m/s | -45.1°C | 0% | 0hPa | 0V | 00:00:00 | 00:00:00 | 00:00:00 | |
| LZ4TU-5 | 2026-09-05 12:03:54 | 42.99378 | 20.27560 | 104° | 49km/h | 10866m | 5.0m/s | -44.9°C | 0% | 0hPa | 0V | 00:00:00 | 00:00:00 | 00:00:00 | |
| LZ4TU-5 | 2026-09-05 12:03:50 | 42.99388 | 20.27497 | 98° | 44km/h | 10846m | 5.1m/s | -44.8°C | 0% | 0hPa | 0V | 00:00:00 | 00:00:00 | 00:00:00 | |
| LZ4TU-5 | 2026-09-05 12:01:40 | 42.99833 | 20.25604 | 121° | 44km/h | 10191m | 4.8m/s | -39.7°C | 0% | 0hPa | 0V | 00:00:00 | 00:00:00 | 00:00:00 | |
| LZ4TU-5 | 2026-09-05 12:01:36 | 42.99852 | 20.25551 | 115° | 46km/h | 10172m | 4.9m/s | -39.4°C | 0% | 0hPa | 0V | 00:00:00 | 00:00:00 | 00:00:00 | |
| LZ4TU-5 | 2026-09-05 12:01:32 | 42.99870 | 20.25495 | 113° | 42km/h | 10152m | 4.9m/s | -39.3°C | 0% | 0hPa | 0V | 00:00:00 | 00:00:00 | 00:00:00 | |
| LZ4TU-5 | 2026-09-05 12:01:27 | 42.99892 | 20.25426 | 114° | 42km/h | 10129m | 5.0m/s | -39.1°C | 0% | 0hPa | 0V | 00:00:00 | 00:00:00 | 00:00:00 | |
| LZ4TU-5 | 2026-09-05 11:59:27 | 43.00376 | 20.23791 | 109° | 42km/h | 9549m | 5.0m/s | -34.3°C | 0% | 0hPa | 0V | 00:00:00 | 00:00:00 | 00:00:00 | |
| LZ4TU-5 | 2026-09-05 11:59:22 | 43.00398 | 20.23725 | 121° | 44km/h | 9525m | 5.0m/s | -34.2°C | 0% | 0hPa | 0V | 00:00:00 | 00:00:00 | 00:00:00 | |
| LZ4TU-5 | 2026-09-05 11:59:18 | 43.00415 | 20.23670 | 106° | 42km/h | 9507m | 4.4m/s | -34.0°C | 0% | 0hPa | 0V | 00:00:00 | 00:00:00 | 00:00:00 |